地図

経路データ

SID SEASON NUMBER BASIN SUBBASIN NAME ISO_TIME NATURE LAT LON WMO_WIND WMO_PRES WMO_AGENCY TRACK_TYPE DIST2LAND LANDFALL IFLAG USA_AGENCY USA_ATCF_ID USA_LAT USA_LON USA_RECORD USA_STATUS USA_WIND USA_PRES USA_SSHS USA_R34_NE USA_R34_SE USA_R34_SW USA_R34_NW USA_R50_NE USA_R50_SE USA_R50_SW USA_R50_NW USA_R64_NE USA_R64_SE USA_R64_SW USA_R64_NW USA_POCI USA_ROCI USA_RMW USA_EYE TOKYO_LAT TOKYO_LON TOKYO_GRADE TOKYO_WIND TOKYO_PRES TOKYO_R50_DIR TOKYO_R50_LONG TOKYO_R50_SHORT TOKYO_R30_DIR TOKYO_R30_LONG TOKYO_R30_SHORT TOKYO_LAND CMA_LAT CMA_LON CMA_CAT CMA_WIND CMA_PRES HKO_LAT HKO_LON HKO_CAT HKO_WIND HKO_PRES NEWDELHI_LAT NEWDELHI_LON NEWDELHI_GRADE NEWDELHI_WIND NEWDELHI_PRES NEWDELHI_CI NEWDELHI_DP NEWDELHI_POCI REUNION_LAT REUNION_LON REUNION_TYPE REUNION_WIND REUNION_PRES REUNION_TNUM REUNION_CI REUNION_RMW REUNION_R34_NE REUNION_R34_SE REUNION_R34_SW REUNION_R34_NW REUNION_R50_NE REUNION_R50_SE REUNION_R50_SW REUNION_R50_NW REUNION_R64_NE REUNION_R64_SE REUNION_R64_SW REUNION_R64_NW BOM_LAT BOM_LON BOM_TYPE BOM_WIND BOM_PRES BOM_TNUM BOM_CI BOM_RMW BOM_R34_NE BOM_R34_SE BOM_R34_SW BOM_R34_NW BOM_R50_NE BOM_R50_SE BOM_R50_SW BOM_R50_NW BOM_R64_NE BOM_R64_SE BOM_R64_SW BOM_R64_NW BOM_ROCI BOM_POCI BOM_EYE BOM_POS_METHOD BOM_PRES_METHOD NADI_LAT NADI_LON NADI_CAT NADI_WIND NADI_PRES WELLINGTON_LAT WELLINGTON_LON WELLINGTON_WIND WELLINGTON_PRES DS824_LAT DS824_LON DS824_STAGE DS824_WIND DS824_PRES TD9636_LAT TD9636_LON TD9636_STAGE TD9636_WIND TD9636_PRES TD9635_LAT TD9635_LON TD9635_WIND TD9635_PRES TD9635_ROCI NEUMANN_LAT NEUMANN_LON NEUMANN_CLASS NEUMANN_WIND NEUMANN_PRES MLC_LAT MLC_LON MLC_CLASS MLC_WIND MLC_PRES USA_GUST BOM_GUST BOM_GUST_PER REUNION_GUST REUNION_GUST_PER USA_SEAHGT USA_SEARAD_NE USA_SEARAD_SE USA_SEARAD_SW USA_SEARAD_NW STORM_SPEED STORM_DIR
1989189S07088 1990 52 SI MM NOT_NAMED 1989-07-07 12:00:00 TS -7.40000 87.6000 main 1404 1404 O___________O_ jtwc_sh SH011990 -7.40000 87.6000 25 -1 -7.40000 87.6000 TC 25 6 304
1989189S07088 1990 52 SI MM NOT_NAMED 1989-07-07 15:00:00 TS -7.23251 87.3549 main 1412 1412 P___________P_ SH011990 -7.23251 87.3549 25 -1 -7.23251 87.3549 TC 25 6 301
1989189S07088 1990 52 SI MM NOT_NAMED 1989-07-07 18:00:00 TS -7.10000 87.1000 main 1437 1437 O___________O_ jtwc_sh SH011990 -7.10000 87.1000 25 -1 -7.10000 87.1000 TC 25 6 292
1989189S07088 1990 52 SI MM NOT_NAMED 1989-07-07 21:00:00 TS -7.02751 86.8350 main 1461 1461 P___________P_ SH011990 -7.02751 86.8350 25 -1 -7.02751 86.8350 TC 25 5 281
1989189S07088 1990 52 SI MM NOT_NAMED 1989-07-08 00:00:00 TS -7.00000 86.6000 main 1481 1481 O___________O_ jtwc_sh SH011990 -7.00000 86.6000 25 -1 -7.00000 86.6000 TC 25 4 275
1989189S07088 1990 52 SI MM NOT_NAMED 1989-07-08 03:00:00 TS -6.99247 86.4425 main 1499 1499 P___________P_ SH011990 -6.99247 86.4425 25 -1 -6.99247 86.4425 TC 25 3 270
1989189S07088 1990 52 SI MM NOT_NAMED 1989-07-08 06:00:00 TS -7.00000 86.3000 main 1507 1507 O___________O_ jtwc_sh SH011990 -7.00000 86.3000 25 -1 -7.00000 86.3000 TC 25 3 271
1989189S07088 1990 52 SI MM NOT_NAMED 1989-07-08 09:00:00 TS -6.98501 86.1000 main 1522 1522 P___________P_ SH011990 -6.98501 86.1000 25 -1 -6.98501 86.1000 TC 25 4 270
1989189S07088 1990 52 SI MM NOT_NAMED 1989-07-08 12:00:00 TS -7.00000 85.9000 main 1538 1538 O___________O_ jtwc_sh SH011990 -7.00000 85.9000 25 -1 -7.00000 85.9000 TC 25 4 256
1989189S07088 1990 52 SI MM NOT_NAMED 1989-07-08 15:00:00 TS -7.07750 85.7275 main 1562 1559 P___________P_ SH011990 -7.07750 85.7275 25 -1 -7.07750 85.7275 TC 25 4 236
1989189S07088 1990 52 SI MM NOT_NAMED 1989-07-08 18:00:00 TS -7.20000 85.6000 main 1569 1569 O___________O_ jtwc_sh SH011990 -7.20000 85.6000 25 -1 -7.20000 85.6000 TC 25 3 217
1989189S07088 1990 52 SI MM NOT_NAMED 1989-07-08 21:00:00 TS -7.34249 85.5275 main 1576 1576 P___________P_ SH011990 -7.34249 85.5275 25 -1 -7.34249 85.5275 TC 25 3 197
1989189S07088 1990 52 SI MM NOT_NAMED 1989-07-09 00:00:00 TS -7.50000 85.5000 main 1597 1597 O___________O_ jtwc_sh SH011990 -7.50000 85.5000 25 -1 -7.50000 85.5000 TC 25 3 189
1989189S07088 1990 52 SI MM NOT_NAMED 1989-07-09 03:00:00 TS -7.65000 85.4775 main 1607 1607 P___________P_ SH011990 -7.65000 85.4775 25 -1 -7.65000 85.4775 TC 25 3 0
1989189S07088 1990 52 SI MM NOT_NAMED 1989-07-09 06:00:00 TS -7.80000 85.5000 main 1628 1625 O___________O_ jtwc_sh SH011990 -7.80000 85.5000 25 -1 -7.80000 85.5000 TC 25 3 163
1989189S07088 1990 52 SI MM NOT_NAMED 1989-07-09 09:00:00 TS -7.96500 85.5775 main 1630 1625 P___________P_ SH011990 -7.96500 85.5775 25 -1 -7.96500 85.5775 TC 25 4 147
1989189S07088 1990 52 SI MM NOT_NAMED 1989-07-09 12:00:00 TS -8.10000 85.7000 main 1625 1616 O___________O_ jtwc_sh SH011990 -8.10000 85.7000 25 -1 -8.10000 85.7000 TC 25 3 129
1989189S07088 1990 52 SI MM NOT_NAMED 1989-07-09 15:00:00 TS -8.18000 85.8425 main 1621 1602 P___________P_ SH011990 -8.18000 85.8425 25 -1 -8.18000 85.8425 TC 25 3 109
1989189S07088 1990 52 SI MM NOT_NAMED 1989-07-09 18:00:00 TS -8.20000 86.0000 main 1602 1592 O___________O_ jtwc_sh SH011990 -8.20000 86.0000 25 -1 -8.20000 86.0000 TC 25 3 87
1989189S07088 1990 52 SI MM NOT_NAMED 1989-07-09 21:00:00 TS -8.16500 86.1500 main 1582 1567 P___________P_ SH011990 -8.16500 86.1500 25 -1 -8.16500 86.1500 TC 25 3 71
1989189S07088 1990 52 SI MM NOT_NAMED 1989-07-10 00:00:00 TS -8.10000 86.3000 main 1567 1548 O___________O_ jtwc_sh SH011990 -8.10000 86.3000 25 -1 -8.10000 86.3000 TC 25 3 71
1989189S07088 1990 52 SI MM NOT_NAMED 1989-07-10 03:00:00 TS -8.05751 86.4650 main 1548 1533 P___________P_ SH011990 -8.05751 86.4650 27 -1 -8.05751 86.4650 TC 27 3 71
1989189S07088 1990 52 SI MM NOT_NAMED 1989-07-10 06:00:00 TS -8.00000 86.6000 main 1533 1518 O___________O_ jtwc_sh SH011990 -8.00000 86.6000 30 -1 -8.00000 86.6000 TC 30 3 54
1989189S07088 1990 52 SI MM NOT_NAMED 1989-07-10 09:00:00 TS -7.90749 86.6725 main 1518 1512 P___________P_ SH011990 -7.90749 86.6725 30 -1 -7.90749 86.6725 TC 30 2 27
1989189S07088 1990 52 SI MM NOT_NAMED 1989-07-10 12:00:00 TS -7.80000 86.7000 main 1512 1507 O___________O_ jtwc_sh SH011990 -7.80000 86.7000 30 -1 -7.80000 86.7000 TC 30 2 16
1989189S07088 1990 52 SI MM NOT_NAMED 1989-07-10 15:00:00 TS -7.69250 86.7225 main 1507 1502 P___________P_ SH011990 -7.69250 86.7225 30 -1 -7.69250 86.7225 TC 30 2 8
1989189S07088 1990 52 SI MM NOT_NAMED 1989-07-10 18:00:00 TS -7.60000 86.7000 main 1502 1502 O___________O_ jtwc_sh SH011990 -7.60000 86.7000 30 -1 -7.60000 86.7000 TC 30 2 326
1989189S07088 1990 52 SI MM NOT_NAMED 1989-07-10 21:00:00 TS -7.53500 86.6150 main 1506 1506 P___________P_ SH011990 -7.53500 86.6150 30 -1 -7.53500 86.6150 TC 30 2 297
1989189S07088 1990 52 SI MM NOT_NAMED 1989-07-11 00:00:00 TS -7.50000 86.5000 main 1516 1516 O___________O_ jtwc_sh SH011990 -7.50000 86.5000 30 -1 -7.50000 86.5000 TC 30 2 285
1989189S07088 1990 52 SI MM NOT_NAMED 1989-07-11 03:00:00 TS -7.47001 86.3775 main 1526 1526 P___________P_ SH011990 -7.47000 86.3775 30 -1 -7.47000 86.3775 TC 30 2 270
1989189S07088 1990 52 SI MM NOT_NAMED 1989-07-11 06:00:00 TS -7.50000 86.3000 main 1536 1536 O___________O_ jtwc_sh SH011990 -7.50000 86.3000 30 -1 -7.50000 86.3000 TC 30 2 197
1989189S07088 1990 52 SI MM NOT_NAMED 1989-07-11 09:00:00 TS -7.63500 86.3275 main 1541 1536 P___________P_ SH011990 -7.63500 86.3275 30 -1 -7.63500 86.3275 TC 30 3 163
1989189S07088 1990 52 SI MM NOT_NAMED 1989-07-11 12:00:00 TS -7.80000 86.4000 main 1541 1537 O___________O_ jtwc_sh SH011990 -7.80000 86.4000 30 -1 -7.80000 86.4000 TC 30 3 155
1989189S07088 1990 52 SI MM NOT_NAMED 1989-07-11 15:00:00 TS -7.91750 86.4575 main 1537 1537 P___________P_ SH011990 -7.91750 86.4575 27 -1 -7.91750 86.4575 TC 27 2 153
1989189S07088 1990 52 SI MM NOT_NAMED 1989-07-11 18:00:00 TS -8.00000 86.5000 main 1542 O___________O_ jtwc_sh SH011990 -8.00000 86.5000 25 -1 -8.00000 86.5000 TC 25 2 159

IBTrACS Databaseについて

本データベースは、米国NOAAが公開する1842年以降の世界の熱帯低気圧のベストトラックデータアーカイブInternational Best Track Archive for Climate Stewardship (IBTrACS)を、ウェブで閲覧しやすい形式に変換したものです。

最終更新日:2021-12-08